Time;durP1;ratioP1;P1;durP2;ratioP2;P2;SDS_P1;SDS_P2;PMS_P1;PMS_P2;Temp;Humidity;BMP_temperature;BMP_pressure;BME280_temperature;BME280_humidity;BME280_pressure;Samples;Min_cycle;Max_cycle;Signal;HPM_P1;HPM_P2
2023/02/04 00:01:02;;;;;;;1.40;1.40;;;6.20;61.20;;;;;;6155215;23;20443;-75
2023/02/04 00:03:29;;;;;;;1.75;1.65;;;6.30;60.00;;;;;;6154600;23;20372;-74
2023/02/04 00:05:56;;;;;;;1.33;1.33;;;7.00;57.50;;;;;;6181465;23;20380;-75
2023/02/04 00:08:23;;;;;;;1.35;1.25;;;7.00;57.00;;;;;;6154285;23;20376;-75
2023/02/04 00:10:49;;;;;;;1.40;1.40;;;7.30;55.70;;;;;;6181555;23;20435;-75
2023/02/04 00:13:16;;;;;;;1.50;1.40;;;7.20;55.70;;;;;;6155422;23;20852;-75
2023/02/04 00:15:43;;;;;;;1.42;1.33;;;7.10;56.10;;;;;;6154693;23;20404;-75
2023/02/04 00:18:10;;;;;;;1.50;1.40;;;7.00;56.40;;;;;;6155437;23;20376;-76
2023/02/04 00:20:37;;;;;;;1.20;1.20;;;6.80;57.00;;;;;;6154439;23;20396;-75
2023/02/04 00:23:04;;;;;;;1.52;1.48;;;6.60;57.70;;;;;;6155491;23;20407;-75
2023/02/04 00:25:31;;;;;;;1.70;1.60;;;6.30;59.30;;;;;;6153745;23;20380;-75
2023/02/04 00:27:58;;;;;;;1.70;1.60;;;5.90;61.00;;;;;;6155359;23;20416;-75
2023/02/04 00:30:25;;;;;;;1.40;1.40;;;5.90;61.40;;;;;;6154296;23;20407;-75
2023/02/04 00:32:53;;;;;;;1.70;1.60;;;5.80;61.80;;;;;;6182509;23;20373;-75
2023/02/04 00:35:22;;;;;;;1.23;1.23;;;5.70;61.80;;;;;;6157137;23;20384;-74
2023/02/04 00:37:50;;;;;;;1.60;1.50;;;5.70;61.90;;;;;;6182458;23;20364;-74
2023/02/04 00:40:17;;;;;;;1.55;1.45;;;5.70;61.80;;;;;;6157218;23;20400;-75
2023/02/04 00:42:44;;;;;;;1.60;1.50;;;5.70;62.10;;;;;;6156279;23;20381;-75
2023/02/04 00:45:12;;;;;;;1.23;1.23;;;5.60;62.50;;;;;;6157491;23;20407;-75
2023/02/04 00:47:39;;;;;;;1.50;1.40;;;5.70;62.30;;;;;;6182127;23;20396;-74
2023/02/04 00:50:06;;;;;;;2.20;2.10;;;5.80;62.20;;;;;;6157210;23;20899;-75
2023/02/04 00:52:33;;;;;;;2.50;2.40;;;5.80;62.40;;;;;;6182144;23;20399;-76
2023/02/04 00:55:00;;;;;;;1.70;1.60;;;5.60;63.40;;;;;;6156916;23;20753;-75
2023/02/04 00:57:27;;;;;;;1.60;1.50;;;5.60;63.40;;;;;;6156540;23;20377;-76
2023/02/04 00:59:53;;;;;;;1.50;1.40;;;5.40;63.80;;;;;;6156877;23;20459;-75
2023/02/04 01:02:20;;;;;;;1.60;1.50;;;5.20;64.80;;;;;;6183211;23;20844;-76
2023/02/04 01:04:48;;;;;;;1.43;1.43;;;4.90;66.90;;;;;;6181561;23;20377;-76
2023/02/04 01:07:15;;;;;;;1.80;1.70;;;4.60;68.50;;;;;;6156854;23;20408;-75
2023/02/04 01:09:42;;;;;;;1.50;1.50;;;4.10;72.40;;;;;;6155938;23;20384;-75
2023/02/04 01:12:09;;;;;;;1.87;1.77;;;4.00;73.10;;;;;;6156794;23;20372;-75
2023/02/04 01:14:36;;;;;;;1.77;1.67;;;3.90;75.40;;;;;;6181670;23;20384;-76
2023/02/04 01:17:02;;;;;;;1.65;1.55;;;3.90;76.40;;;;;;6156953;23;20376;-76
2023/02/04 01:19:37;;;;;;;1.70;1.60;;;4.00;76.00;;;;;;6157656;23;20383;-76
2023/02/04 01:22:04;;;;;;;1.70;1.65;;;4.10;75.40;;;;;;6182830;23;20376;-75
2023/02/04 01:24:31;;;;;;;1.70;1.60;;;4.10;74.20;;;;;;6182942;23;20425;-75
2023/02/04 01:26:57;;;;;;;1.60;1.55;;;4.10;73.50;;;;;;6155843;23;20360;-75
2023/02/04 01:29:24;;;;;;;1.63;1.52;;;4.00;74.70;;;;;;6182554;23;20391;-75
2023/02/04 01:31:51;;;;;;;1.60;1.50;;;4.00;74.40;;;;;;6155618;23;20407;-76
2023/02/04 01:34:18;;;;;;;1.60;1.50;;;3.80;77.90;;;;;;6156547;23;20387;-75
2023/02/04 01:36:45;;;;;;;1.70;1.60;;;3.80;78.60;;;;;;6155984;23;20376;-75
2023/02/04 01:39:12;;;;;;;1.77;1.67;;;3.80;77.80;;;;;;6156913;23;20372;-75
2023/02/04 01:41:39;;;;;;;1.52;1.42;;;3.90;77.80;;;;;;6181033;23;20380;-75
2023/02/04 01:44:06;;;;;;;1.67;1.63;;;3.80;77.80;;;;;;6175613;23;20438;-76
2023/02/04 01:46:36;;;;;;;1.92;1.83;;;3.80;77.90;;;;;;6156127;23;20400;-76
2023/02/04 01:49:04;;;;;;;1.90;1.80;;;3.80;81.20;;;;;;6155644;23;20400;-76
2023/02/04 01:51:31;;;;;;;1.92;1.83;;;4.00;79.20;;;;;;6156651;23;20687;-75
2023/02/04 01:53:59;;;;;;;1.92;1.83;;;4.00;78.90;;;;;;6155067;23;20768;-76
2023/02/04 01:56:29;;;;;;;1.90;1.80;;;4.00;78.70;;;;;;6156550;23;20411;-76
2023/02/04 01:58:58;;;;;;;1.80;1.70;;;3.90;79.10;;;;;;6156630;23;20447;-76
